Friday, August 1, 2014, 3:46 AM EDT

KLNS, Lancaster Airport

Location: Lititz, PA, United States Lat: 40.117
Local Time: 3:46 AM EDT ( 7:46 GMT) Lon: -76.3
Time Zone: US/Eastern Elev: 403 ft

Show me the last for .
Show Decoded

2014-08-01 02:53 METAR KLNS 010653Z AUTO 08003KT 6SM BR BKN110 19/18 A3015 RMK AO2 SLP205
                 T01940178 =
2014-08-01 01:53 METAR KLNS 010553Z AUTO 07003KT 5SM BR CLR 19/17 A3015 RMK AO2 SLP205 T01940172
                 10256 20189 53006 =
2014-08-01 00:53 METAR KLNS 010453Z AUTO 08004KT 7SM FEW085 20/17 A3014 RMK AO2 SLP202 T02000172
                 402780150 =
2014-07-31 23:53 METAR KLNS 010353Z AUTO 08003KT 7SM BKN080 21/18 A3013 RMK AO2 SLP200 T02060178
                 =
2014-07-31 21:53 METAR KLNS 010153Z 18005KT 10SM BKN090 23/17 A3013 RMK AO2 SLP200 T02280172 =
2014-07-31 20:53 METAR KLNS 010053Z 18005KT 10SM CLR 23/16 A3012 RMK AO2 SLP196 T02330161 =
2014-07-31 19:53 METAR KLNS 312353Z 21005KT 10SM SCT120 26/14 A3010 RMK AO2 SLP191 T02560144
                 10278 20256 53006 =
2014-07-31 18:53 METAR KLNS 312253Z 21007KT 10SM SCT120 26/14 A3009 RMK AO2 SLP187 T02560144 =
2014-07-31 17:53 METAR KLNS 312153Z 22010KT 10SM FEW120 26/15 A3009 RMK AO2 SLP186 T02610150 =
2014-07-31 16:53 METAR KLNS 312053Z 23010KT 10SM SCT055 26/14 A3008 RMK AO2 SLP185 T02610144
                 56001 =
2014-07-31 15:53 METAR KLNS 311953Z 23008KT 10SM CLR 27/14 A3008 RMK AO2 SLP185 T02670139 =
2014-07-31 14:53 METAR KLNS 311853Z 19009KT 10SM SCT055 27/15 A3009 RMK AO2 SLP185 T02670150 =
2014-07-31 13:53 METAR KLNS 311753Z 25008KT 10SM SCT049 SCT060 27/15 A3009 RMK AO2 SLP186
                 T02670150 10267 20178 58005 =
2014-07-31 12:53 METAR KLNS 311653Z 22006KT 10SM CLR 26/15 A3010 RMK AO2 SLP189 T02560150 =
2014-07-31 11:53 METAR KLNS 311553Z 28007KT 10SM FEW041 24/16 A3010 RMK AO2 SLP191 T02440161 =
2014-07-31 10:53 METAR KLNS 311453Z VRB04KT 10SM CLR 23/16 A3010 RMK AO2 SLP191 T02330156 55002 =
2014-07-31 09:53 METAR KLNS 311353Z 27003KT 10SM CLR 22/16 A3010 RMK AO2 SLP190 T02170161 =
2014-07-31 08:53 METAR KLNS 311253Z 25003KT 10SM CLR 20/15 A3010 RMK AO2 SLP191 T02000150 =
2014-07-31 07:53 METAR KLNS 311153Z 00000KT 4SM BR CLR 18/16 A3011 RMK AO2 SLP193 60000 T01780156
                 10183 20150 52015 =
2014-07-31 06:53 METAR KLNS 311053Z 00000KT 4SM BR CLR 16/14 A3009 RMK AO2 SLP187 T01560144 =
2014-07-31 05:53 METAR KLNS 310953Z 00000KT 6SM BR FEW100 16/14 A3008 RMK AO2 SLP184 T01560139 =
2014-07-31 04:53 METAR KLNS 310853Z 00000KT 6SM BR BKN095 OVC110 17/15 A3006 RMK AO2 SLP178 60000
                 T01670150 55000 =

Support USWX by starting your Amazon purchase here.